sensor_id;sensor_type;location;lat;lon;timestamp;temperature;humidity
25024;DHT22;13033;50.936;5.334;2023-06-26T00:00:04;25.40;99.90
25024;DHT22;13033;50.936;5.334;2023-06-26T00:02:30;25.40;99.90
25024;DHT22;13033;50.936;5.334;2023-06-26T00:04:58;25.20;99.90
25024;DHT22;13033;50.936;5.334;2023-06-26T00:07:28;25.10;99.90
25024;DHT22;13033;50.936;5.334;2023-06-26T00:09:53;25.00;99.90
25024;DHT22;13033;50.936;5.334;2023-06-26T00:12:19;25.00;99.90
25024;DHT22;13033;50.936;5.334;2023-06-26T00:14:45;25.10;99.90
25024;DHT22;13033;50.936;5.334;2023-06-26T00:17:11;24.90;99.90
25024;DHT22;13033;50.936;5.334;2023-06-26T00:19:37;24.90;99.90
25024;DHT22;13033;50.936;5.334;2023-06-26T00:22:02;24.90;99.90
25024;DHT22;13033;50.936;5.334;2023-06-26T00:24:28;24.80;99.90
25024;DHT22;13033;50.936;5.334;2023-06-26T00:26:54;24.80;99.90
25024;DHT22;13033;50.936;5.334;2023-06-26T00:29:19;24.80;99.90
25024;DHT22;13033;50.936;5.334;2023-06-26T00:31:45;24.60;99.90
25024;DHT22;13033;50.936;5.334;2023-06-26T00:34:10;24.60;99.90
25024;DHT22;13033;50.936;5.334;2023-06-26T00:36:36;24.70;99.90
25024;DHT22;13033;50.936;5.334;2023-06-26T00:39:02;24.50;99.90
25024;DHT22;13033;50.936;5.334;2023-06-26T00:41:29;24.60;99.90
25024;DHT22;13033;50.936;5.334;2023-06-26T00:43:54;24.70;99.90
25024;DHT22;13033;50.936;5.334;2023-06-26T00:46:20;24.60;99.90
25024;DHT22;13033;50.936;5.334;2023-06-26T00:48:48;24.50;99.90
25024;DHT22;13033;50.936;5.334;2023-06-26T00:51:14;24.40;99.90
25024;DHT22;13033;50.936;5.334;2023-06-26T00:53:41;24.40;99.90
25024;DHT22;13033;50.936;5.334;2023-06-26T00:56:08;24.40;99.90
25024;DHT22;13033;50.936;5.334;2023-06-26T00:58:33;24.40;99.90
25024;DHT22;13033;50.936;5.334;2023-06-26T01:00:59;24.20;99.90
25024;DHT22;13033;50.936;5.334;2023-06-26T01:03:26;24.20;99.90
25024;DHT22;13033;50.936;5.334;2023-06-26T01:05:52;24.20;99.90
25024;DHT22;13033;50.936;5.334;2023-06-26T01:08:20;24.20;99.90
25024;DHT22;13033;50.936;5.334;2023-06-26T01:10:47;24.10;99.90
25024;DHT22;13033;50.936;5.334;2023-06-26T01:13:13;24.00;99.90
25024;DHT22;13033;50.936;5.334;2023-06-26T01:15:40;23.90;99.90
25024;DHT22;13033;50.936;5.334;2023-06-26T01:18:06;23.90;99.90
25024;DHT22;13033;50.936;5.334;2023-06-26T01:20:36;23.80;99.90
25024;DHT22;13033;50.936;5.334;2023-06-26T01:23:22;23.80;99.90
25024;DHT22;13033;50.936;5.334;2023-06-26T01:26:10;23.80;99.90
25024;DHT22;13033;50.936;5.334;2023-06-26T01:28:42;23.90;99.90
25024;DHT22;13033;50.936;5.334;2023-06-26T01:31:08;23.90;99.90
25024;DHT22;13033;50.936;5.334;2023-06-26T01:33:35;23.90;99.90
25024;DHT22;13033;50.936;5.334;2023-06-26T01:36:02;23.90;99.90
25024;DHT22;13033;50.936;5.334;2023-06-26T01:38:28;23.80;99.90
25024;DHT22;13033;50.936;5.334;2023-06-26T01:40:54;23.80;99.90
25024;DHT22;13033;50.936;5.334;2023-06-26T01:45:53;23.60;99.90
25024;DHT22;13033;50.936;5.334;2023-06-26T01:48:24;23.50;99.90
25024;DHT22;13033;50.936;5.334;2023-06-26T01:50:52;23.50;99.90
25024;DHT22;13033;50.936;5.334;2023-06-26T01:53:22;23.50;99.90
25024;DHT22;13033;50.936;5.334;2023-06-26T01:56:08;23.40;99.90
25024;DHT22;13033;50.936;5.334;2023-06-26T01:58:40;23.40;99.90
25024;DHT22;13033;50.936;5.334;2023-06-26T02:01:08;23.40;99.90
25024;DHT22;13033;50.936;5.334;2023-06-26T02:03:34;23.20;99.90
25024;DHT22;13033;50.936;5.334;2023-06-26T02:06:00;23.20;12.60
25024;DHT22;13033;50.936;5.334;2023-06-26T02:08:25;23.40;99.90
25024;DHT22;13033;50.936;5.334;2023-06-26T02:10:51;23.30;99.90
25024;DHT22;13033;50.936;5.334;2023-06-26T02:13:17;23.20;99.90
25024;DHT22;13033;50.936;5.334;2023-06-26T02:15:42;23.20;99.90
25024;DHT22;13033;50.936;5.334;2023-06-26T02:18:08;23.00;99.90
25024;DHT22;13033;50.936;5.334;2023-06-26T02:20:34;22.80;99.90
25024;DHT22;13033;50.936;5.334;2023-06-26T02:22:59;22.60;99.90
25024;DHT22;13033;50.936;5.334;2023-06-26T02:25:25;22.50;20.60
25024;DHT22;13033;50.936;5.334;2023-06-26T02:27:51;22.50;20.70
25024;DHT22;13033;50.936;5.334;2023-06-26T02:30:16;22.40;17.00
25024;DHT22;13033;50.936;5.334;2023-06-26T02:32:42;22.50;17.60
25024;DHT22;13033;50.936;5.334;2023-06-26T02:35:08;22.30;19.50
25024;DHT22;13033;50.936;5.334;2023-06-26T02:37:34;22.30;23.00
25024;DHT22;13033;50.936;5.334;2023-06-26T02:39:59;22.40;19.50
25024;DHT22;13033;50.936;5.334;2023-06-26T02:42:25;22.40;99.90
25024;DHT22;13033;50.936;5.334;2023-06-26T02:44:51;22.30;99.90
25024;DHT22;13033;50.936;5.334;2023-06-26T02:47:17;22.30;99.90
25024;DHT22;13033;50.936;5.334;2023-06-26T02:49:42;22.20;99.90
25024;DHT22;13033;50.936;5.334;2023-06-26T02:52:08;22.30;99.90
25024;DHT22;13033;50.936;5.334;2023-06-26T02:54:34;22.30;99.90
25024;DHT22;13033;50.936;5.334;2023-06-26T02:56:59;22.20;99.90
25024;DHT22;13033;50.936;5.334;2023-06-26T02:59:26;22.00;99.90
25024;DHT22;13033;50.936;5.334;2023-06-26T03:01:51;22.20;99.90
25024;DHT22;13033;50.936;5.334;2023-06-26T03:04:17;22.10;99.90
25024;DHT22;13033;50.936;5.334;2023-06-26T03:06:43;22.00;99.90
25024;DHT22;13033;50.936;5.334;2023-06-26T03:09:09;22.10;99.90
25024;DHT22;13033;50.936;5.334;2023-06-26T03:11:35;21.90;99.90
25024;DHT22;13033;50.936;5.334;2023-06-26T03:14:00;21.80;99.90
25024;DHT22;13033;50.936;5.334;2023-06-26T03:16:26;21.70;99.90
25024;DHT22;13033;50.936;5.334;2023-06-26T03:18:52;21.70;99.90
25024;DHT22;13033;50.936;5.334;2023-06-26T03:21:17;21.70;99.90
25024;DHT22;13033;50.936;5.334;2023-06-26T03:23:43;21.60;99.90
25024;DHT22;13033;50.936;5.334;2023-06-26T03:26:08;21.50;99.90
25024;DHT22;13033;50.936;5.334;2023-06-26T03:28:34;21.50;99.90
25024;DHT22;13033;50.936;5.334;2023-06-26T03:31:00;21.50;99.90
25024;DHT22;13033;50.936;5.334;2023-06-26T03:33:25;21.40;99.90
25024;DHT22;13033;50.936;5.334;2023-06-26T03:35:51;21.30;99.90
25024;DHT22;13033;50.936;5.334;2023-06-26T03:38:17;21.20;99.90
25024;DHT22;13033;50.936;5.334;2023-06-26T03:40:42;21.20;99.90
25024;DHT22;13033;50.936;5.334;2023-06-26T03:43:08;21.20;99.90
25024;DHT22;13033;50.936;5.334;2023-06-26T03:45:34;21.20;99.90
25024;DHT22;13033;50.936;5.334;2023-06-26T03:47:59;21.20;99.90
25024;DHT22;13033;50.936;5.334;2023-06-26T03:50:25;21.00;99.90
25024;DHT22;13033;50.936;5.334;2023-06-26T03:52:50;21.00;99.90
25024;DHT22;13033;50.936;5.334;2023-06-26T03:55:17;21.00;99.90
25024;DHT22;13033;50.936;5.334;2023-06-26T03:57:43;20.90;99.90
25024;DHT22;13033;50.936;5.334;2023-06-26T04:00:09;21.20;99.90
25024;DHT22;13033;50.936;5.334;2023-06-26T04:02:37;21.30;99.90
25024;DHT22;13033;50.936;5.334;2023-06-26T04:05:04;21.30;99.90
25024;DHT22;13033;50.936;5.334;2023-06-26T04:07:30;21.40;99.90
25024;DHT22;13033;50.936;5.334;2023-06-26T04:09:57;21.20;99.90
25024;DHT22;13033;50.936;5.334;2023-06-26T04:12:22;21.10;99.90
25024;DHT22;13033;50.936;5.334;2023-06-26T04:14:48;21.20;99.90
25024;DHT22;13033;50.936;5.334;2023-06-26T04:17:14;21.30;99.90
25024;DHT22;13033;50.936;5.334;2023-06-26T04:19:39;21.30;99.90
25024;DHT22;13033;50.936;5.334;2023-06-26T04:22:05;21.10;99.90
25024;DHT22;13033;50.936;5.334;2023-06-26T04:24:31;20.90;47.20
25024;DHT22;13033;50.936;5.334;2023-06-26T04:26:56;20.90;49.00
25024;DHT22;13033;50.936;5.334;2023-06-26T04:29:23;21.00;49.10
25024;DHT22;13033;50.936;5.334;2023-06-26T04:31:51;21.00;50.20
25024;DHT22;13033;50.936;5.334;2023-06-26T04:34:17;21.00;51.80
25024;DHT22;13033;50.936;5.334;2023-06-26T04:36:43;21.10;51.40
25024;DHT22;13033;50.936;5.334;2023-06-26T04:39:14;21.20;49.50
25024;DHT22;13033;50.936;5.334;2023-06-26T04:41:40;21.20;48.10
25024;DHT22;13033;50.936;5.334;2023-06-26T04:44:06;21.10;51.70
25024;DHT22;13033;50.936;5.334;2023-06-26T04:46:32;21.10;55.40
25024;DHT22;13033;50.936;5.334;2023-06-26T04:48:57;21.10;55.60
25024;DHT22;13033;50.936;5.334;2023-06-26T04:51:27;20.90;60.70
25024;DHT22;13033;50.936;5.334;2023-06-26T04:53:54;20.90;63.00
25024;DHT22;13033;50.936;5.334;2023-06-26T04:56:20;20.90;66.20
25024;DHT22;13033;50.936;5.334;2023-06-26T04:58:45;20.90;65.90
25024;DHT22;13033;50.936;5.334;2023-06-26T05:01:11;21.00;62.30
25024;DHT22;13033;50.936;5.334;2023-06-26T05:03:39;21.00;66.80
25024;DHT22;13033;50.936;5.334;2023-06-26T05:06:05;21.00;67.40
25024;DHT22;13033;50.936;5.334;2023-06-26T05:08:30;21.00;66.80
25024;DHT22;13033;50.936;5.334;2023-06-26T05:10:56;21.00;66.10
25024;DHT22;13033;50.936;5.334;2023-06-26T05:13:24;21.00;66.00
25024;DHT22;13033;50.936;5.334;2023-06-26T05:15:51;20.90;70.30
25024;DHT22;13033;50.936;5.334;2023-06-26T05:18:17;20.90;69.70
25024;DHT22;13033;50.936;5.334;2023-06-26T05:20:43;21.00;70.00
25024;DHT22;13033;50.936;5.334;2023-06-26T05:23:11;21.10;68.60
25024;DHT22;13033;50.936;5.334;2023-06-26T05:25:37;21.10;66.90
25024;DHT22;13033;50.936;5.334;2023-06-26T05:28:03;21.10;68.00
25024;DHT22;13033;50.936;5.334;2023-06-26T05:30:34;21.00;70.40
25024;DHT22;13033;50.936;5.334;2023-06-26T05:33:01;21.00;69.20
25024;DHT22;13033;50.936;5.334;2023-06-26T05:35:30;20.90;68.90
25024;DHT22;13033;50.936;5.334;2023-06-26T05:37:57;21.00;74.80
25024;DHT22;13033;50.936;5.334;2023-06-26T05:40:24;20.90;99.90
25024;DHT22;13033;50.936;5.334;2023-06-26T05:42:50;21.00;99.90
25024;DHT22;13033;50.936;5.334;2023-06-26T05:45:16;21.00;99.90
25024;DHT22;13033;50.936;5.334;2023-06-26T05:47:42;21.00;99.90
25024;DHT22;13033;50.936;5.334;2023-06-26T05:50:17;20.90;99.90
25024;DHT22;13033;50.936;5.334;2023-06-26T05:52:44;20.80;99.90
25024;DHT22;13033;50.936;5.334;2023-06-26T05:55:10;20.70;99.90
25024;DHT22;13033;50.936;5.334;2023-06-26T05:57:37;20.70;99.90
25024;DHT22;13033;50.936;5.334;2023-06-26T06:00:03;20.70;99.90
25024;DHT22;13033;50.936;5.334;2023-06-26T06:02:39;20.70;99.90
25024;DHT22;13033;50.936;5.334;2023-06-26T06:05:05;20.70;99.90
25024;DHT22;13033;50.936;5.334;2023-06-26T06:07:32;20.70;99.90
25024;DHT22;13033;50.936;5.334;2023-06-26T06:09:58;20.60;99.90
25024;DHT22;13033;50.936;5.334;2023-06-26T06:12:24;20.60;99.90
25024;DHT22;13033;50.936;5.334;2023-06-26T06:14:50;20.60;99.90
25024;DHT22;13033;50.936;5.334;2023-06-26T06:17:16;20.50;99.90
25024;DHT22;13033;50.936;5.334;2023-06-26T06:19:41;20.50;99.90
25024;DHT22;13033;50.936;5.334;2023-06-26T06:22:07;20.60;99.90
25024;DHT22;13033;50.936;5.334;2023-06-26T06:24:33;20.70;99.90
25024;DHT22;13033;50.936;5.334;2023-06-26T06:26:58;20.80;99.90
25024;DHT22;13033;50.936;5.334;2023-06-26T06:29:24;20.90;99.90
25024;DHT22;13033;50.936;5.334;2023-06-26T06:31:49;20.80;99.90
25024;DHT22;13033;50.936;5.334;2023-06-26T06:34:16;20.80;99.90
25024;DHT22;13033;50.936;5.334;2023-06-26T06:36:42;20.90;99.90
25024;DHT22;13033;50.936;5.334;2023-06-26T06:39:08;21.00;99.90
25024;DHT22;13033;50.936;5.334;2023-06-26T06:41:33;21.00;99.90
25024;DHT22;13033;50.936;5.334;2023-06-26T06:43:59;20.90;99.90
25024;DHT22;13033;50.936;5.334;2023-06-26T06:46:25;21.00;99.90
25024;DHT22;13033;50.936;5.334;2023-06-26T06:48:52;21.00;99.90
25024;DHT22;13033;50.936;5.334;2023-06-26T06:51:18;21.20;99.90
25024;DHT22;13033;50.936;5.334;2023-06-26T06:53:44;21.20;99.90
25024;DHT22;13033;50.936;5.334;2023-06-26T06:56:09;21.30;99.90
25024;DHT22;13033;50.936;5.334;2023-06-26T06:58:35;21.50;99.90
25024;DHT22;13033;50.936;5.334;2023-06-26T07:01:01;21.70;99.90
25024;DHT22;13033;50.936;5.334;2023-06-26T07:03:30;21.60;99.90
25024;DHT22;13033;50.936;5.334;2023-06-26T07:05:56;21.60;99.90
25024;DHT22;13033;50.936;5.334;2023-06-26T07:08:21;21.50;99.90
25024;DHT22;13033;50.936;5.334;2023-06-26T07:10:47;21.50;99.90
25024;DHT22;13033;50.936;5.334;2023-06-26T07:13:13;21.50;99.90
25024;DHT22;13033;50.936;5.334;2023-06-26T07:15:38;21.60;99.90
25024;DHT22;13033;50.936;5.334;2023-06-26T07:18:04;21.90;99.90
25024;DHT22;13033;50.936;5.334;2023-06-26T07:20:30;21.90;99.90
25024;DHT22;13033;50.936;5.334;2023-06-26T07:22:55;21.90;99.90
25024;DHT22;13033;50.936;5.334;2023-06-26T07:25:21;21.90;99.90
25024;DHT22;13033;50.936;5.334;2023-06-26T07:27:47;21.90;99.90
25024;DHT22;13033;50.936;5.334;2023-06-26T07:30:12;22.10;99.90
25024;DHT22;13033;50.936;5.334;2023-06-26T07:32:38;22.30;99.90
25024;DHT22;13033;50.936;5.334;2023-06-26T07:35:06;22.40;99.90
25024;DHT22;13033;50.936;5.334;2023-06-26T07:37:32;22.40;99.90
25024;DHT22;13033;50.936;5.334;2023-06-26T07:39:57;22.30;99.90
25024;DHT22;13033;50.936;5.334;2023-06-26T07:42:23;22.10;99.90
25024;DHT22;13033;50.936;5.334;2023-06-26T07:44:49;22.10;99.90
25024;DHT22;13033;50.936;5.334;2023-06-26T07:47:15;22.10;99.90
25024;DHT22;13033;50.936;5.334;2023-06-26T07:49:40;22.20;99.90
25024;DHT22;13033;50.936;5.334;2023-06-26T07:52:07;22.30;99.90
25024;DHT22;13033;50.936;5.334;2023-06-26T07:54:32;22.40;99.90
25024;DHT22;13033;50.936;5.334;2023-06-26T07:57:03;22.30;99.90
25024;DHT22;13033;50.936;5.334;2023-06-26T07:59:30;22.20;99.90
25024;DHT22;13033;50.936;5.334;2023-06-26T08:01:57;22.20;99.90
25024;DHT22;13033;50.936;5.334;2023-06-26T08:04:25;22.20;99.90
25024;DHT22;13033;50.936;5.334;2023-06-26T08:06:55;22.30;99.90
25024;DHT22;13033;50.936;5.334;2023-06-26T08:09:26;22.50;99.90
25024;DHT22;13033;50.936;5.334;2023-06-26T08:11:52;22.60;99.90
25024;DHT22;13033;50.936;5.334;2023-06-26T08:14:18;22.60;99.90
25024;DHT22;13033;50.936;5.334;2023-06-26T08:16:44;22.60;99.90
25024;DHT22;13033;50.936;5.334;2023-06-26T08:19:14;22.80;99.90
25024;DHT22;13033;50.936;5.334;2023-06-26T08:21:44;22.80;99.90
25024;DHT22;13033;50.936;5.334;2023-06-26T08:24:10;23.00;99.90
25024;DHT22;13033;50.936;5.334;2023-06-26T08:26:36;23.00;99.90
25024;DHT22;13033;50.936;5.334;2023-06-26T08:29:02;23.30;99.90
25024;DHT22;13033;50.936;5.334;2023-06-26T08:31:37;23.30;99.90
25024;DHT22;13033;50.936;5.334;2023-06-26T08:34:03;23.30;99.90
25024;DHT22;13033;50.936;5.334;2023-06-26T08:36:30;23.40;99.90
25024;DHT22;13033;50.936;5.334;2023-06-26T08:38:55;23.10;99.90
25024;DHT22;13033;50.936;5.334;2023-06-26T08:41:21;23.00;99.90
25024;DHT22;13033;50.936;5.334;2023-06-26T08:43:47;22.90;99.90
25024;DHT22;13033;50.936;5.334;2023-06-26T08:46:14;23.00;99.90
25024;DHT22;13033;50.936;5.334;2023-06-26T08:48:45;22.90;99.90
25024;DHT22;13033;50.936;5.334;2023-06-26T08:51:16;23.10;99.90
25024;DHT22;13033;50.936;5.334;2023-06-26T08:53:55;23.00;99.90
25024;DHT22;13033;50.936;5.334;2023-06-26T08:56:22;23.20;99.90
25024;DHT22;13033;50.936;5.334;2023-06-26T08:58:49;23.50;99.90
25024;DHT22;13033;50.936;5.334;2023-06-26T09:01:16;23.50;99.90
25024;DHT22;13033;50.936;5.334;2023-06-26T09:03:43;23.40;99.90
25024;DHT22;13033;50.936;5.334;2023-06-26T09:06:08;23.60;99.90
25024;DHT22;13033;50.936;5.334;2023-06-26T09:08:34;23.60;99.90
25024;DHT22;13033;50.936;5.334;2023-06-26T09:11:00;23.50;99.90
25024;DHT22;13033;50.936;5.334;2023-06-26T09:13:25;23.50;99.90
25024;DHT22;13033;50.936;5.334;2023-06-26T09:15:54;23.50;99.90
25024;DHT22;13033;50.936;5.334;2023-06-26T09:18:21;23.60;99.90
25024;DHT22;13033;50.936;5.334;2023-06-26T09:20:47;24.00;99.90
25024;DHT22;13033;50.936;5.334;2023-06-26T09:23:13;24.10;99.90
25024;DHT22;13033;50.936;5.334;2023-06-26T09:25:42;23.80;99.90
25024;DHT22;13033;50.936;5.334;2023-06-26T09:28:08;23.60;99.90
25024;DHT22;13033;50.936;5.334;2023-06-26T09:30:35;23.30;99.90
25024;DHT22;13033;50.936;5.334;2023-06-26T09:33:18;23.10;99.90
25024;DHT22;13033;50.936;5.334;2023-06-26T09:35:45;23.30;99.90
25024;DHT22;13033;50.936;5.334;2023-06-26T09:38:12;23.50;99.90
25024;DHT22;13033;50.936;5.334;2023-06-26T09:40:38;23.60;99.90
25024;DHT22;13033;50.936;5.334;2023-06-26T09:43:08;23.60;99.90
25024;DHT22;13033;50.936;5.334;2023-06-26T09:45:35;23.60;99.90
25024;DHT22;13033;50.936;5.334;2023-06-26T09:48:04;23.80;99.90
25024;DHT22;13033;50.936;5.334;2023-06-26T09:50:32;23.90;99.90
25024;DHT22;13033;50.936;5.334;2023-06-26T09:53:10;23.90;99.90
25024;DHT22;13033;50.936;5.334;2023-06-26T09:55:37;23.90;99.90
25024;DHT22;13033;50.936;5.334;2023-06-26T09:58:03;24.00;99.90
25024;DHT22;13033;50.936;5.334;2023-06-26T10:00:32;23.90;99.90
25024;DHT22;13033;50.936;5.334;2023-06-26T10:02:59;23.70;99.90
25024;DHT22;13033;50.936;5.334;2023-06-26T10:05:25;23.60;99.90
25024;DHT22;13033;50.936;5.334;2023-06-26T10:07:52;23.90;99.90
25024;DHT22;13033;50.936;5.334;2023-06-26T10:10:18;24.20;99.90
25024;DHT22;13033;50.936;5.334;2023-06-26T10:12:49;24.30;99.90
25024;DHT22;13033;50.936;5.334;2023-06-26T10:15:16;24.30;99.90
25024;DHT22;13033;50.936;5.334;2023-06-26T10:17:43;24.40;99.90
25024;DHT22;13033;50.936;5.334;2023-06-26T10:20:10;24.40;99.90
25024;DHT22;13033;50.936;5.334;2023-06-26T10:22:44;24.40;99.90
25024;DHT22;13033;50.936;5.334;2023-06-26T10:25:14;24.50;99.90
25024;DHT22;13033;50.936;5.334;2023-06-26T10:27:47;24.40;99.90
25024;DHT22;13033;50.936;5.334;2023-06-26T10:30:17;24.30;99.90
25024;DHT22;13033;50.936;5.334;2023-06-26T10:32:45;24.10;99.90
25024;DHT22;13033;50.936;5.334;2023-06-26T10:35:11;24.20;99.90
25024;DHT22;13033;50.936;5.334;2023-06-26T10:37:47;24.40;99.90
25024;DHT22;13033;50.936;5.334;2023-06-26T10:40:15;24.50;99.90
25024;DHT22;13033;50.936;5.334;2023-06-26T10:42:46;24.50;99.90
25024;DHT22;13033;50.936;5.334;2023-06-26T10:45:16;24.70;99.90
25024;DHT22;13033;50.936;5.334;2023-06-26T10:47:48;24.90;99.90
25024;DHT22;13033;50.936;5.334;2023-06-26T10:50:26;24.90;99.90
25024;DHT22;13033;50.936;5.334;2023-06-26T10:55:51;24.20;98.40
25024;DHT22;13033;50.936;5.334;2023-06-26T10:58:32;24.00;98.00
25024;DHT22;13033;50.936;5.334;2023-06-26T11:01:17;24.10;98.60
25024;DHT22;13033;50.936;5.334;2023-06-26T11:04:00;24.50;97.00
25024;DHT22;13033;50.936;5.334;2023-06-26T11:06:30;24.70;95.60
25024;DHT22;13033;50.936;5.334;2023-06-26T11:14:26;25.50;92.80
25024;DHT22;13033;50.936;5.334;2023-06-26T11:16:55;25.60;93.10
25024;DHT22;13033;50.936;5.334;2023-06-26T11:19:21;25.60;93.60
25024;DHT22;13033;50.936;5.334;2023-06-26T11:21:47;25.50;93.90
25024;DHT22;13033;50.936;5.334;2023-06-26T11:24:13;25.30;94.30
25024;DHT22;13033;50.936;5.334;2023-06-26T11:26:44;25.50;92.90
25024;DHT22;13033;50.936;5.334;2023-06-26T11:29:11;25.70;91.40
25024;DHT22;13033;50.936;5.334;2023-06-26T11:31:38;25.50;90.00
25024;DHT22;13033;50.936;5.334;2023-06-26T11:34:12;25.20;91.20
25024;DHT22;13033;50.936;5.334;2023-06-26T11:36:39;24.80;92.00
25024;DHT22;13033;50.936;5.334;2023-06-26T11:39:07;25.00;92.10
25024;DHT22;13033;50.936;5.334;2023-06-26T11:41:38;24.90;91.10
25024;DHT22;13033;50.936;5.334;2023-06-26T11:44:05;24.90;90.60
25024;DHT22;13033;50.936;5.334;2023-06-26T11:46:32;25.00;90.50
25024;DHT22;13033;50.936;5.334;2023-06-26T11:48:59;25.10;90.40
25024;DHT22;13033;50.936;5.334;2023-06-26T11:51:28;25.10;90.40
25024;DHT22;13033;50.936;5.334;2023-06-26T11:53:54;25.00;90.90
25024;DHT22;13033;50.936;5.334;2023-06-26T11:56:20;25.00;90.80
25024;DHT22;13033;50.936;5.334;2023-06-26T11:59:01;25.10;90.30
25024;DHT22;13033;50.936;5.334;2023-06-26T12:01:43;25.20;90.30
25024;DHT22;13033;50.936;5.334;2023-06-26T12:04:16;25.20;89.80
25024;DHT22;13033;50.936;5.334;2023-06-26T12:06:46;25.30;87.90
25024;DHT22;13033;50.936;5.334;2023-06-26T12:09:12;25.30;87.80
25024;DHT22;13033;50.936;5.334;2023-06-26T12:11:43;25.30;88.50
25024;DHT22;13033;50.936;5.334;2023-06-26T12:14:10;25.30;87.90
25024;DHT22;13033;50.936;5.334;2023-06-26T12:16:36;25.30;87.00
25024;DHT22;13033;50.936;5.334;2023-06-26T12:19:05;25.30;85.80
25024;DHT22;13033;50.936;5.334;2023-06-26T12:21:44;25.30;86.80
25024;DHT22;13033;50.936;5.334;2023-06-26T12:24:16;25.30;86.70
25024;DHT22;13033;50.936;5.334;2023-06-26T12:26:47;25.20;87.00
25024;DHT22;13033;50.936;5.334;2023-06-26T12:29:17;25.10;87.40
25024;DHT22;13033;50.936;5.334;2023-06-26T12:31:45;25.10;86.30
25024;DHT22;13033;50.936;5.334;2023-06-26T12:34:13;25.20;85.50
25024;DHT22;13033;50.936;5.334;2023-06-26T12:36:44;25.50;83.90
25024;DHT22;13033;50.936;5.334;2023-06-26T12:39:12;25.50;82.20
25024;DHT22;13033;50.936;5.334;2023-06-26T12:41:56;25.10;83.50
25024;DHT22;13033;50.936;5.334;2023-06-26T12:44:27;25.00;84.90
25024;DHT22;13033;50.936;5.334;2023-06-26T12:47:02;25.00;84.10
25024;DHT22;13033;50.936;5.334;2023-06-26T12:49:42;25.00;84.50
25024;DHT22;13033;50.936;5.334;2023-06-26T12:52:17;25.10;83.80
25024;DHT22;13033;50.936;5.334;2023-06-26T12:54:49;25.10;84.40
25024;DHT22;13033;50.936;5.334;2023-06-26T12:57:16;25.10;83.30
25024;DHT22;13033;50.936;5.334;2023-06-26T12:59:42;25.20;84.50
25024;DHT22;13033;50.936;5.334;2023-06-26T13:02:09;25.80;83.70
25024;DHT22;13033;50.936;5.334;2023-06-26T13:04:36;26.00;81.80
25024;DHT22;13033;50.936;5.334;2023-06-26T13:07:05;26.20;81.90
25024;DHT22;13033;50.936;5.334;2023-06-26T13:09:34;26.20;81.80
25024;DHT22;13033;50.936;5.334;2023-06-26T13:12:01;26.10;82.70
25024;DHT22;13033;50.936;5.334;2023-06-26T13:14:32;25.80;81.70
25024;DHT22;13033;50.936;5.334;2023-06-26T13:16:58;25.80;80.90
25024;DHT22;13033;50.936;5.334;2023-06-26T13:19:23;26.10;78.40
25024;DHT22;13033;50.936;5.334;2023-06-26T13:21:49;26.10;77.40
25024;DHT22;13033;50.936;5.334;2023-06-26T13:24:15;25.70;76.40
25024;DHT22;13033;50.936;5.334;2023-06-26T13:26:41;25.60;77.30
25024;DHT22;13033;50.936;5.334;2023-06-26T13:29:07;25.60;77.40
25024;DHT22;13033;50.936;5.334;2023-06-26T13:31:32;25.60;76.30
25024;DHT22;13033;50.936;5.334;2023-06-26T13:33:59;25.70;77.30
25024;DHT22;13033;50.936;5.334;2023-06-26T13:36:25;25.90;75.60
25024;DHT22;13033;50.936;5.334;2023-06-26T13:38:51;25.90;75.50
25024;DHT22;13033;50.936;5.334;2023-06-26T13:41:24;26.00;74.80
25024;DHT22;13033;50.936;5.334;2023-06-26T13:43:50;26.20;74.10
25024;DHT22;13033;50.936;5.334;2023-06-26T13:46:16;26.50;72.40
25024;DHT22;13033;50.936;5.334;2023-06-26T13:48:43;26.20;71.60
25024;DHT22;13033;50.936;5.334;2023-06-26T13:51:09;26.00;69.90
25024;DHT22;13033;50.936;5.334;2023-06-26T13:53:35;26.00;71.70
25024;DHT22;13033;50.936;5.334;2023-06-26T13:56:00;26.40;70.60
25024;DHT22;13033;50.936;5.334;2023-06-26T13:58:26;26.60;69.70
25024;DHT22;13033;50.936;5.334;2023-06-26T14:00:54;26.20;70.50
25024;DHT22;13033;50.936;5.334;2023-06-26T14:03:19;25.60;73.00
25024;DHT22;13033;50.936;5.334;2023-06-26T14:05:45;25.30;72.20
25024;DHT22;13033;50.936;5.334;2023-06-26T14:08:10;25.30;72.70
25024;DHT22;13033;50.936;5.334;2023-06-26T14:10:37;25.90;72.90
25024;DHT22;13033;50.936;5.334;2023-06-26T14:13:03;26.30;70.50
25024;DHT22;13033;50.936;5.334;2023-06-26T14:15:29;26.30;72.10
25024;DHT22;13033;50.936;5.334;2023-06-26T14:17:55;26.70;72.80
25024;DHT22;13033;50.936;5.334;2023-06-26T14:20:22;27.00;71.70
25024;DHT22;13033;50.936;5.334;2023-06-26T14:22:48;26.30;71.50
25024;DHT22;13033;50.936;5.334;2023-06-26T14:25:14;26.40;72.20
25024;DHT22;13033;50.936;5.334;2023-06-26T14:27:40;26.80;71.50
25024;DHT22;13033;50.936;5.334;2023-06-26T14:30:06;27.40;72.30
25024;DHT22;13033;50.936;5.334;2023-06-26T14:32:33;28.20;68.20
25024;DHT22;13033;50.936;5.334;2023-06-26T14:34:59;27.80;67.10
25024;DHT22;13033;50.936;5.334;2023-06-26T14:37:26;27.20;69.60
25024;DHT22;13033;50.936;5.334;2023-06-26T14:39:52;27.10;68.80
25024;DHT22;13033;50.936;5.334;2023-06-26T14:42:18;27.10;68.80
25024;DHT22;13033;50.936;5.334;2023-06-26T14:44:43;26.90;67.20
25024;DHT22;13033;50.936;5.334;2023-06-26T14:47:12;26.40;69.10
25024;DHT22;13033;50.936;5.334;2023-06-26T14:49:38;26.20;68.50
25024;DHT22;13033;50.936;5.334;2023-06-26T14:52:04;26.10;68.60
25024;DHT22;13033;50.936;5.334;2023-06-26T14:54:30;26.20;68.10
25024;DHT22;13033;50.936;5.334;2023-06-26T14:56:56;26.20;67.40
25024;DHT22;13033;50.936;5.334;2023-06-26T14:59:21;26.30;66.50
25024;DHT22;13033;50.936;5.334;2023-06-26T15:01:47;26.50;66.40
25024;DHT22;13033;50.936;5.334;2023-06-26T15:04:12;26.70;66.20
25024;DHT22;13033;50.936;5.334;2023-06-26T15:06:38;26.70;66.70
25024;DHT22;13033;50.936;5.334;2023-06-26T15:09:04;26.40;68.00
25024;DHT22;13033;50.936;5.334;2023-06-26T15:11:31;26.30;69.60
25024;DHT22;13033;50.936;5.334;2023-06-26T15:13:57;26.00;69.20
25024;DHT22;13033;50.936;5.334;2023-06-26T15:16:23;25.90;69.90
25024;DHT22;13033;50.936;5.334;2023-06-26T15:18:48;25.80;71.20
25024;DHT22;13033;50.936;5.334;2023-06-26T15:21:14;26.00;70.70
25024;DHT22;13033;50.936;5.334;2023-06-26T15:23:39;26.70;68.70
25024;DHT22;13033;50.936;5.334;2023-06-26T15:26:05;27.30;67.10
25024;DHT22;13033;50.936;5.334;2023-06-26T15:28:31;27.80;65.30
25024;DHT22;13033;50.936;5.334;2023-06-26T15:30:57;28.00;65.60
25024;DHT22;13033;50.936;5.334;2023-06-26T15:33:22;28.10;64.20
25024;DHT22;13033;50.936;5.334;2023-06-26T15:35:48;27.90;64.90
25024;DHT22;13033;50.936;5.334;2023-06-26T15:38:14;27.70;65.30
25024;DHT22;13033;50.936;5.334;2023-06-26T15:40:39;27.70;65.90